sensor_id;sensor_type;location;lat;lon;timestamp;P1;durP1;ratioP1;P2;durP2;ratioP2
32611;SDS011;19030;49.478;8.986;2022-12-10T00:01:51;18.48;;;9.68;;
32611;SDS011;19030;49.478;8.986;2022-12-10T00:03:52;17.75;;;10.55;;
32611;SDS011;19030;49.478;8.986;2022-12-10T00:05:53;17.75;;;10.32;;
32611;SDS011;19030;49.478;8.986;2022-12-10T00:07:54;17.73;;;9.90;;
32611;SDS011;19030;49.478;8.986;2022-12-10T00:09:54;16.83;;;9.10;;
32611;SDS011;19030;49.478;8.986;2022-12-10T00:11:55;19.52;;;10.65;;
32611;SDS011;19030;49.478;8.986;2022-12-10T00:13:56;19.20;;;10.25;;
32611;SDS011;19030;49.478;8.986;2022-12-10T00:16:01;19.17;;;9.70;;
32611;SDS011;19030;49.478;8.986;2022-12-10T00:18:03;15.38;;;9.25;;
32611;SDS011;19030;49.478;8.986;2022-12-10T00:20:03;17.95;;;9.60;;
32611;SDS011;19030;49.478;8.986;2022-12-10T00:22:04;17.52;;;9.75;;
32611;SDS011;19030;49.478;8.986;2022-12-10T00:24:05;17.98;;;9.25;;
32611;SDS011;19030;49.478;8.986;2022-12-10T00:26:10;18.27;;;9.15;;
32611;SDS011;19030;49.478;8.986;2022-12-10T00:28:21;19.00;;;9.52;;
32611;SDS011;19030;49.478;8.986;2022-12-10T00:30:21;19.13;;;10.18;;
32611;SDS011;19030;49.478;8.986;2022-12-10T00:32:22;17.63;;;10.05;;
32611;SDS011;19030;49.478;8.986;2022-12-10T00:34:22;17.25;;;10.27;;
32611;SDS011;19030;49.478;8.986;2022-12-10T00:36:27;16.83;;;10.15;;
32611;SDS011;19030;49.478;8.986;2022-12-10T00:38:30;19.00;;;9.43;;
32611;SDS011;19030;49.478;8.986;2022-12-10T00:40:31;17.23;;;9.75;;
32611;SDS011;19030;49.478;8.986;2022-12-10T00:42:32;19.20;;;10.25;;
32611;SDS011;19030;49.478;8.986;2022-12-10T00:44:34;18.10;;;10.25;;
32611;SDS011;19030;49.478;8.986;2022-12-10T00:46:36;19.45;;;10.85;;
32611;SDS011;19030;49.478;8.986;2022-12-10T00:48:36;18.17;;;10.68;;
32611;SDS011;19030;49.478;8.986;2022-12-10T00:50:37;19.02;;;11.05;;
32611;SDS011;19030;49.478;8.986;2022-12-10T00:52:37;20.30;;;11.18;;
32611;SDS011;19030;49.478;8.986;2022-12-10T00:54:38;18.48;;;11.25;;
32611;SDS011;19030;49.478;8.986;2022-12-10T00:56:39;20.92;;;11.43;;
32611;SDS011;19030;49.478;8.986;2022-12-10T00:58:40;22.73;;;12.00;;
32611;SDS011;19030;49.478;8.986;2022-12-10T01:00:41;22.60;;;11.77;;
32611;SDS011;19030;49.478;8.986;2022-12-10T01:02:42;21.95;;;11.73;;
32611;SDS011;19030;49.478;8.986;2022-12-10T01:04:42;23.55;;;13.38;;
32611;SDS011;19030;49.478;8.986;2022-12-10T01:06:52;22.10;;;11.82;;
32611;SDS011;19030;49.478;8.986;2022-12-10T01:08:55;18.67;;;11.20;;
32611;SDS011;19030;49.478;8.986;2022-12-10T01:10:57;21.38;;;10.95;;
32611;SDS011;19030;49.478;8.986;2022-12-10T01:12:58;20.20;;;11.05;;
32611;SDS011;19030;49.478;8.986;2022-12-10T01:14:58;18.25;;;11.45;;
32611;SDS011;19030;49.478;8.986;2022-12-10T01:17:00;24.38;;;11.80;;
32611;SDS011;19030;49.478;8.986;2022-12-10T01:19:03;23.45;;;12.95;;
32611;SDS011;19030;49.478;8.986;2022-12-10T01:21:09;21.58;;;12.50;;
32611;SDS011;19030;49.478;8.986;2022-12-10T01:23:11;21.05;;;12.13;;
32611;SDS011;19030;49.478;8.986;2022-12-10T01:25:12;28.90;;;14.75;;
32611;SDS011;19030;49.478;8.986;2022-12-10T01:27:12;28.15;;;14.55;;
32611;SDS011;19030;49.478;8.986;2022-12-10T01:29:13;21.13;;;13.07;;
32611;SDS011;19030;49.478;8.986;2022-12-10T01:31:16;21.98;;;11.52;;
32611;SDS011;19030;49.478;8.986;2022-12-10T01:33:44;21.75;;;12.45;;
32611;SDS011;19030;49.478;8.986;2022-12-10T01:35:44;24.90;;;13.75;;
32611;SDS011;19030;49.478;8.986;2022-12-10T01:37:45;23.25;;;13.50;;
32611;SDS011;19030;49.478;8.986;2022-12-10T01:39:46;20.42;;;11.55;;
32611;SDS011;19030;49.478;8.986;2022-12-10T01:41:48;20.02;;;11.70;;
32611;SDS011;19030;49.478;8.986;2022-12-10T01:45:57;19.40;;;11.27;;
32611;SDS011;19030;49.478;8.986;2022-12-10T01:47:58;23.70;;;12.25;;
32611;SDS011;19030;49.478;8.986;2022-12-10T01:49:59;23.60;;;12.77;;
32611;SDS011;19030;49.478;8.986;2022-12-10T01:52:00;20.92;;;13.02;;
32611;SDS011;19030;49.478;8.986;2022-12-10T01:54:05;21.85;;;12.73;;
32611;SDS011;19030;49.478;8.986;2022-12-10T01:56:09;22.60;;;13.77;;
32611;SDS011;19030;49.478;8.986;2022-12-10T01:58:11;23.40;;;13.57;;
32611;SDS011;19030;49.478;8.986;2022-12-10T02:00:13;26.30;;;14.07;;
32611;SDS011;19030;49.478;8.986;2022-12-10T02:02:24;25.90;;;15.25;;
32611;SDS011;19030;49.478;8.986;2022-12-10T02:07:20;27.08;;;14.80;;
32611;SDS011;19030;49.478;8.986;2022-12-10T02:09:25;25.25;;;14.98;;
32611;SDS011;19030;49.478;8.986;2022-12-10T02:11:29;24.60;;;14.85;;
32611;SDS011;19030;49.478;8.986;2022-12-10T02:13:41;25.38;;;14.20;;
32611;SDS011;19030;49.478;8.986;2022-12-10T02:15:52;24.42;;;13.52;;
32611;SDS011;19030;49.478;8.986;2022-12-10T02:18:28;25.45;;;13.70;;
32611;SDS011;19030;49.478;8.986;2022-12-10T02:20:31;25.05;;;13.73;;
32611;SDS011;19030;49.478;8.986;2022-12-10T02:23:05;21.02;;;11.73;;
32611;SDS011;19030;49.478;8.986;2022-12-10T02:25:15;24.02;;;14.02;;
32611;SDS011;19030;49.478;8.986;2022-12-10T02:27:28;23.02;;;12.95;;
32611;SDS011;19030;49.478;8.986;2022-12-10T02:29:45;22.88;;;12.15;;
32611;SDS011;19030;49.478;8.986;2022-12-10T02:31:50;21.88;;;12.35;;
32611;SDS011;19030;49.478;8.986;2022-12-10T02:33:55;20.58;;;12.13;;
32611;SDS011;19030;49.478;8.986;2022-12-10T02:39:23;25.15;;;12.70;;
32611;SDS011;19030;49.478;8.986;2022-12-10T02:41:33;24.38;;;12.90;;
32611;SDS011;19030;49.478;8.986;2022-12-10T02:43:35;24.58;;;13.07;;
32611;SDS011;19030;49.478;8.986;2022-12-10T02:45:38;20.92;;;12.05;;
32611;SDS011;19030;49.478;8.986;2022-12-10T02:47:41;23.50;;;12.65;;
32611;SDS011;19030;49.478;8.986;2022-12-10T02:49:42;23.58;;;13.05;;
32611;SDS011;19030;49.478;8.986;2022-12-10T02:51:47;24.65;;;13.25;;
32611;SDS011;19030;49.478;8.986;2022-12-10T02:53:47;23.08;;;12.60;;
32611;SDS011;19030;49.478;8.986;2022-12-10T02:55:54;21.98;;;12.95;;
32611;SDS011;19030;49.478;8.986;2022-12-10T02:58:25;20.33;;;11.93;;
32611;SDS011;19030;49.478;8.986;2022-12-10T03:00:38;23.55;;;13.70;;
32611;SDS011;19030;49.478;8.986;2022-12-10T03:07:00;21.88;;;11.68;;
32611;SDS011;19030;49.478;8.986;2022-12-10T03:09:15;20.15;;;11.13;;
32611;SDS011;19030;49.478;8.986;2022-12-10T03:11:47;16.48;;;9.35;;
32611;SDS011;19030;49.478;8.986;2022-12-10T03:13:53;19.83;;;10.85;;
32611;SDS011;19030;49.478;8.986;2022-12-10T03:15:59;17.65;;;9.60;;
32611;SDS011;19030;49.478;8.986;2022-12-10T03:18:02;17.80;;;10.98;;
32611;SDS011;19030;49.478;8.986;2022-12-10T03:20:06;15.88;;;10.02;;
32611;SDS011;19030;49.478;8.986;2022-12-10T03:22:09;18.48;;;10.25;;
32611;SDS011;19030;49.478;8.986;2022-12-10T03:24:13;16.23;;;9.55;;
32611;SDS011;19030;49.478;8.986;2022-12-10T03:26:15;17.23;;;9.35;;
32611;SDS011;19030;49.478;8.986;2022-12-10T03:28:18;20.52;;;10.05;;
32611;SDS011;19030;49.478;8.986;2022-12-10T03:30:20;17.00;;;9.43;;
32611;SDS011;19030;49.478;8.986;2022-12-10T03:32:21;17.13;;;10.43;;
32611;SDS011;19030;49.478;8.986;2022-12-10T03:34:24;17.83;;;9.75;;
32611;SDS011;19030;49.478;8.986;2022-12-10T03:36:25;17.48;;;9.27;;
32611;SDS011;19030;49.478;8.986;2022-12-10T03:38:28;16.10;;;9.65;;
32611;SDS011;19030;49.478;8.986;2022-12-10T03:40:29;18.70;;;9.75;;
32611;SDS011;19030;49.478;8.986;2022-12-10T03:42:31;19.60;;;11.23;;
32611;SDS011;19030;49.478;8.986;2022-12-10T03:44:33;17.65;;;9.88;;
32611;SDS011;19030;49.478;8.986;2022-12-10T03:46:35;16.17;;;9.68;;
32611;SDS011;19030;49.478;8.986;2022-12-10T03:48:36;18.50;;;10.45;;
32611;SDS011;19030;49.478;8.986;2022-12-10T03:50:36;18.60;;;10.60;;
32611;SDS011;19030;49.478;8.986;2022-12-10T03:52:37;20.05;;;10.63;;
32611;SDS011;19030;49.478;8.986;2022-12-10T03:54:38;22.20;;;11.68;;
32611;SDS011;19030;49.478;8.986;2022-12-10T03:56:39;18.08;;;11.05;;
32611;SDS011;19030;49.478;8.986;2022-12-10T03:58:39;19.83;;;11.60;;
32611;SDS011;19030;49.478;8.986;2022-12-10T04:00:40;23.67;;;11.70;;
32611;SDS011;19030;49.478;8.986;2022-12-10T04:02:41;24.08;;;14.25;;
32611;SDS011;19030;49.478;8.986;2022-12-10T04:04:41;21.45;;;11.80;;
32611;SDS011;19030;49.478;8.986;2022-12-10T04:06:42;22.27;;;13.00;;
32611;SDS011;19030;49.478;8.986;2022-12-10T04:08:43;20.70;;;12.35;;
32611;SDS011;19030;49.478;8.986;2022-12-10T04:10:44;23.05;;;12.43;;
32611;SDS011;19030;49.478;8.986;2022-12-10T04:12:45;20.35;;;11.88;;
32611;SDS011;19030;49.478;8.986;2022-12-10T04:15:05;21.02;;;11.20;;
32611;SDS011;19030;49.478;8.986;2022-12-10T04:17:26;20.10;;;10.95;;
32611;SDS011;19030;49.478;8.986;2022-12-10T04:19:27;23.42;;;11.45;;
32611;SDS011;19030;49.478;8.986;2022-12-10T04:21:28;22.92;;;11.90;;
32611;SDS011;19030;49.478;8.986;2022-12-10T04:23:48;21.02;;;12.30;;
32611;SDS011;19030;49.478;8.986;2022-12-10T04:26:08;19.13;;;11.43;;
32611;SDS011;19030;49.478;8.986;2022-12-10T04:28:27;22.25;;;12.23;;
32611;SDS011;19030;49.478;8.986;2022-12-10T04:30:28;22.98;;;12.52;;
32611;SDS011;19030;49.478;8.986;2022-12-10T04:32:28;19.92;;;11.65;;
32611;SDS011;19030;49.478;8.986;2022-12-10T04:34:29;20.13;;;11.52;;
32611;SDS011;19030;49.478;8.986;2022-12-10T04:36:30;20.13;;;11.95;;
32611;SDS011;19030;49.478;8.986;2022-12-10T04:38:31;23.42;;;12.00;;
32611;SDS011;19030;49.478;8.986;2022-12-10T04:40:31;19.00;;;11.48;;
32611;SDS011;19030;49.478;8.986;2022-12-10T04:42:32;21.65;;;11.43;;
32611;SDS011;19030;49.478;8.986;2022-12-10T04:44:33;22.55;;;11.57;;
32611;SDS011;19030;49.478;8.986;2022-12-10T04:46:34;20.27;;;11.68;;
32611;SDS011;19030;49.478;8.986;2022-12-10T04:48:35;22.95;;;13.15;;
32611;SDS011;19030;49.478;8.986;2022-12-10T04:50:36;20.40;;;11.82;;
32611;SDS011;19030;49.478;8.986;2022-12-10T04:52:36;20.70;;;12.00;;
32611;SDS011;19030;49.478;8.986;2022-12-10T04:54:37;21.10;;;11.73;;
32611;SDS011;19030;49.478;8.986;2022-12-10T04:56:37;22.65;;;12.27;;
32611;SDS011;19030;49.478;8.986;2022-12-10T04:58:38;21.80;;;12.20;;
32611;SDS011;19030;49.478;8.986;2022-12-10T05:00:39;21.40;;;11.40;;
32611;SDS011;19030;49.478;8.986;2022-12-10T05:02:39;21.73;;;11.63;;
32611;SDS011;19030;49.478;8.986;2022-12-10T05:04:40;20.80;;;11.10;;
32611;SDS011;19030;49.478;8.986;2022-12-10T05:06:40;21.38;;;12.10;;
32611;SDS011;19030;49.478;8.986;2022-12-10T05:08:42;24.70;;;11.93;;
32611;SDS011;19030;49.478;8.986;2022-12-10T05:10:43;22.50;;;11.93;;
32611;SDS011;19030;49.478;8.986;2022-12-10T05:12:44;20.85;;;11.50;;
32611;SDS011;19030;49.478;8.986;2022-12-10T05:14:44;25.35;;;13.10;;
32611;SDS011;19030;49.478;8.986;2022-12-10T05:16:45;20.58;;;12.02;;
32611;SDS011;19030;49.478;8.986;2022-12-10T05:18:49;23.65;;;12.20;;
32611;SDS011;19030;49.478;8.986;2022-12-10T05:20:50;20.80;;;11.95;;
32611;SDS011;19030;49.478;8.986;2022-12-10T05:22:51;20.63;;;12.23;;
32611;SDS011;19030;49.478;8.986;2022-12-10T05:25:11;22.63;;;12.18;;
32611;SDS011;19030;49.478;8.986;2022-12-10T05:27:12;25.17;;;13.77;;
32611;SDS011;19030;49.478;8.986;2022-12-10T05:29:13;22.45;;;13.00;;
32611;SDS011;19030;49.478;8.986;2022-12-10T05:31:14;26.15;;;13.93;;
32611;SDS011;19030;49.478;8.986;2022-12-10T05:33:26;26.20;;;14.05;;
32611;SDS011;19030;49.478;8.986;2022-12-10T05:35:27;26.33;;;14.63;;
32611;SDS011;19030;49.478;8.986;2022-12-10T05:37:28;29.55;;;15.98;;
32611;SDS011;19030;49.478;8.986;2022-12-10T05:39:28;25.50;;;14.57;;
32611;SDS011;19030;49.478;8.986;2022-12-10T05:41:30;26.50;;;15.23;;
32611;SDS011;19030;49.478;8.986;2022-12-10T05:43:34;26.42;;;14.52;;
32611;SDS011;19030;49.478;8.986;2022-12-10T05:45:35;25.35;;;14.52;;
32611;SDS011;19030;49.478;8.986;2022-12-10T05:47:35;27.38;;;15.30;;
32611;SDS011;19030;49.478;8.986;2022-12-10T05:49:36;28.85;;;15.57;;
32611;SDS011;19030;49.478;8.986;2022-12-10T05:51:37;25.98;;;15.15;;
32611;SDS011;19030;49.478;8.986;2022-12-10T05:53:38;27.90;;;14.48;;
32611;SDS011;19030;49.478;8.986;2022-12-10T05:55:39;29.83;;;16.80;;
32611;SDS011;19030;49.478;8.986;2022-12-10T05:57:40;27.05;;;15.07;;
32611;SDS011;19030;49.478;8.986;2022-12-10T05:59:41;32.50;;;16.77;;
32611;SDS011;19030;49.478;8.986;2022-12-10T06:01:42;28.85;;;15.95;;
32611;SDS011;19030;49.478;8.986;2022-12-10T06:03:43;28.00;;;15.50;;
32611;SDS011;19030;49.478;8.986;2022-12-10T06:05:44;32.30;;;15.93;;
32611;SDS011;19030;49.478;8.986;2022-12-10T06:07:45;30.02;;;16.05;;
32611;SDS011;19030;49.478;8.986;2022-12-10T06:09:45;28.38;;;15.48;;
32611;SDS011;19030;49.478;8.986;2022-12-10T06:11:46;28.35;;;15.02;;
32611;SDS011;19030;49.478;8.986;2022-12-10T06:13:46;25.25;;;15.02;;
32611;SDS011;19030;49.478;8.986;2022-12-10T06:15:47;28.10;;;15.85;;
32611;SDS011;19030;49.478;8.986;2022-12-10T06:17:47;26.65;;;15.50;;
32611;SDS011;19030;49.478;8.986;2022-12-10T06:19:48;26.95;;;16.10;;
32611;SDS011;19030;49.478;8.986;2022-12-10T06:21:48;26.13;;;14.73;;
32611;SDS011;19030;49.478;8.986;2022-12-10T06:23:49;26.33;;;15.45;;
32611;SDS011;19030;49.478;8.986;2022-12-10T06:25:52;28.50;;;15.68;;
32611;SDS011;19030;49.478;8.986;2022-12-10T06:27:52;31.92;;;16.27;;
32611;SDS011;19030;49.478;8.986;2022-12-10T06:29:53;32.05;;;16.60;;
32611;SDS011;19030;49.478;8.986;2022-12-10T06:31:53;30.23;;;17.48;;
32611;SDS011;19030;49.478;8.986;2022-12-10T06:33:54;31.55;;;16.63;;
32611;SDS011;19030;49.478;8.986;2022-12-10T06:35:54;31.30;;;16.63;;
32611;SDS011;19030;49.478;8.986;2022-12-10T06:37:55;34.90;;;17.00;;
32611;SDS011;19030;49.478;8.986;2022-12-10T06:39:55;33.47;;;17.83;;
32611;SDS011;19030;49.478;8.986;2022-12-10T06:41:56;32.08;;;18.13;;
32611;SDS011;19030;49.478;8.986;2022-12-10T06:43:57;29.95;;;16.45;;
32611;SDS011;19030;49.478;8.986;2022-12-10T06:46:04;32.40;;;18.60;;
32611;SDS011;19030;49.478;8.986;2022-12-10T06:48:06;27.85;;;15.30;;
32611;SDS011;19030;49.478;8.986;2022-12-10T06:50:08;31.48;;;16.52;;
32611;SDS011;19030;49.478;8.986;2022-12-10T06:52:08;26.63;;;14.48;;
32611;SDS011;19030;49.478;8.986;2022-12-10T06:54:09;27.50;;;15.25;;
32611;SDS011;19030;49.478;8.986;2022-12-10T06:56:12;29.92;;;16.10;;
32611;SDS011;19030;49.478;8.986;2022-12-10T06:58:14;34.97;;;18.33;;
32611;SDS011;19030;49.478;8.986;2022-12-10T07:00:15;36.00;;;18.60;;
32611;SDS011;19030;49.478;8.986;2022-12-10T07:02:16;34.03;;;18.50;;
32611;SDS011;19030;49.478;8.986;2022-12-10T07:04:16;34.50;;;18.67;;
32611;SDS011;19030;49.478;8.986;2022-12-10T07:06:17;32.80;;;17.27;;
32611;SDS011;19030;49.478;8.986;2022-12-10T07:08:18;35.38;;;18.00;;
32611;SDS011;19030;49.478;8.986;2022-12-10T07:10:19;34.40;;;16.63;;
32611;SDS011;19030;49.478;8.986;2022-12-10T07:12:21;32.33;;;17.00;;
32611;SDS011;19030;49.478;8.986;2022-12-10T07:14:21;35.53;;;16.60;;
32611;SDS011;19030;49.478;8.986;2022-12-10T07:16:23;31.50;;;17.35;;
32611;SDS011;19030;49.478;8.986;2022-12-10T07:18:26;32.97;;;17.83;;
32611;SDS011;19030;49.478;8.986;2022-12-10T07:20:27;32.75;;;17.70;;
32611;SDS011;19030;49.478;8.986;2022-12-10T07:22:30;34.80;;;18.17;;
32611;SDS011;19030;49.478;8.986;2022-12-10T07:24:30;31.10;;;16.40;;
32611;SDS011;19030;49.478;8.986;2022-12-10T07:26:33;34.53;;;19.08;;
32611;SDS011;19030;49.478;8.986;2022-12-10T07:28:36;34.70;;;17.25;;
32611;SDS011;19030;49.478;8.986;2022-12-10T07:30:37;30.85;;;17.08;;
32611;SDS011;19030;49.478;8.986;2022-12-10T07:32:38;31.05;;;17.30;;
32611;SDS011;19030;49.478;8.986;2022-12-10T07:34:38;31.77;;;16.95;;
32611;SDS011;19030;49.478;8.986;2022-12-10T07:36:39;31.10;;;16.30;;
32611;SDS011;19030;49.478;8.986;2022-12-10T07:38:40;29.52;;;16.35;;
32611;SDS011;19030;49.478;8.986;2022-12-10T07:40:41;30.48;;;17.40;;
32611;SDS011;19030;49.478;8.986;2022-12-10T07:42:41;29.15;;;15.90;;
32611;SDS011;19030;49.478;8.986;2022-12-10T07:44:42;29.88;;;16.35;;
32611;SDS011;19030;49.478;8.986;2022-12-10T07:46:42;30.55;;;16.30;;
32611;SDS011;19030;49.478;8.986;2022-12-10T07:48:44;28.70;;;15.75;;
32611;SDS011;19030;49.478;8.986;2022-12-10T07:50:45;29.50;;;15.40;;
32611;SDS011;19030;49.478;8.986;2022-12-10T07:52:45;30.67;;;16.20;;
32611;SDS011;19030;49.478;8.986;2022-12-10T07:54:46;29.80;;;15.98;;
32611;SDS011;19030;49.478;8.986;2022-12-10T07:56:47;31.33;;;17.45;;
32611;SDS011;19030;49.478;8.986;2022-12-10T07:58:47;31.77;;;17.42;;
32611;SDS011;19030;49.478;8.986;2022-12-10T08:00:48;26.30;;;15.80;;
32611;SDS011;19030;49.478;8.986;2022-12-10T08:02:49;29.05;;;15.80;;
32611;SDS011;19030;49.478;8.986;2022-12-10T08:04:50;30.20;;;16.50;;
32611;SDS011;19030;49.478;8.986;2022-12-10T08:06:53;27.13;;;14.95;;
32611;SDS011;19030;49.478;8.986;2022-12-10T08:08:55;29.85;;;16.65;;
32611;SDS011;19030;49.478;8.986;2022-12-10T08:10:58;31.15;;;15.98;;
32611;SDS011;19030;49.478;8.986;2022-12-10T08:13:01;32.97;;;16.65;;
32611;SDS011;19030;49.478;8.986;2022-12-10T08:15:01;30.95;;;16.98;;
32611;SDS011;19030;49.478;8.986;2022-12-10T08:17:02;30.27;;;15.52;;
32611;SDS011;19030;49.478;8.986;2022-12-10T08:19:03;28.63;;;15.90;;
32611;SDS011;19030;49.478;8.986;2022-12-10T08:21:08;29.63;;;16.08;;
32611;SDS011;19030;49.478;8.986;2022-12-10T08:23:11;30.08;;;15.65;;
32611;SDS011;19030;49.478;8.986;2022-12-10T08:25:12;29.77;;;16.30;;
32611;SDS011;19030;49.478;8.986;2022-12-10T08:27:12;30.10;;;16.75;;
32611;SDS011;19030;49.478;8.986;2022-12-10T08:29:13;30.45;;;16.13;;
32611;SDS011;19030;49.478;8.986;2022-12-10T08:31:14;31.80;;;17.23;;
32611;SDS011;19030;49.478;8.986;2022-12-10T08:33:16;29.55;;;16.58;;
32611;SDS011;19030;49.478;8.986;2022-12-10T08:35:16;26.25;;;14.57;;
32611;SDS011;19030;49.478;8.986;2022-12-10T08:37:17;26.90;;;14.88;;
32611;SDS011;19030;49.478;8.986;2022-12-10T08:39:17;30.83;;;15.40;;
32611;SDS011;19030;49.478;8.986;2022-12-10T08:41:19;28.70;;;15.75;;
32611;SDS011;19030;49.478;8.986;2022-12-10T08:43:21;28.75;;;16.45;;
32611;SDS011;19030;49.478;8.986;2022-12-10T08:45:21;30.52;;;15.30;;
32611;SDS011;19030;49.478;8.986;2022-12-10T08:47:23;25.77;;;15.20;;
32611;SDS011;19030;49.478;8.986;2022-12-10T08:49:24;26.10;;;15.63;;
32611;SDS011;19030;49.478;8.986;2022-12-10T08:51:25;27.70;;;16.20;;
32611;SDS011;19030;49.478;8.986;2022-12-10T08:53:26;29.48;;;16.38;;
32611;SDS011;19030;49.478;8.986;2022-12-10T08:55:27;26.55;;;15.40;;
32611;SDS011;19030;49.478;8.986;2022-12-10T08:57:27;28.50;;;16.23;;
32611;SDS011;19030;49.478;8.986;2022-12-10T08:59:28;31.73;;;17.35;;
32611;SDS011;19030;49.478;8.986;2022-12-10T09:01:28;29.40;;;16.42;;
32611;SDS011;19030;49.478;8.986;2022-12-10T09:03:29;29.30;;;16.48;;
32611;SDS011;19030;49.478;8.986;2022-12-10T09:05:29;29.40;;;16.15;;
32611;SDS011;19030;49.478;8.986;2022-12-10T09:07:30;29.80;;;16.92;;
32611;SDS011;19030;49.478;8.986;2022-12-10T09:09:31;30.00;;;16.77;;
32611;SDS011;19030;49.478;8.986;2022-12-10T09:11:33;31.50;;;17.33;;
32611;SDS011;19030;49.478;8.986;2022-12-10T09:13:35;33.28;;;16.80;;
32611;SDS011;19030;49.478;8.986;2022-12-10T09:15:35;31.17;;;16.67;;
32611;SDS011;19030;49.478;8.986;2022-12-10T09:17:37;24.60;;;14.48;;
32611;SDS011;19030;49.478;8.986;2022-12-10T09:19:38;26.75;;;15.88;;
32611;SDS011;19030;49.478;8.986;2022-12-10T09:21:39;28.30;;;15.73;;
32611;SDS011;19030;49.478;8.986;2022-12-10T09:23:40;24.98;;;14.05;;
32611;SDS011;19030;49.478;8.986;2022-12-10T09:25:41;24.38;;;14.13;;
32611;SDS011;19030;49.478;8.986;2022-12-10T09:27:42;22.80;;;13.77;;
32611;SDS011;19030;49.478;8.986;2022-12-10T09:29:43;24.02;;;15.25;;
32611;SDS011;19030;49.478;8.986;2022-12-10T09:31:44;26.48;;;15.10;;
32611;SDS011;19030;49.478;8.986;2022-12-10T09:33:45;24.63;;;15.63;;
32611;SDS011;19030;49.478;8.986;2022-12-10T09:35:47;24.05;;;15.60;;
32611;SDS011;19030;49.478;8.986;2022-12-10T09:37:47;25.00;;;15.50;;
32611;SDS011;19030;49.478;8.986;2022-12-10T09:39:48;23.98;;;15.10;;
32611;SDS011;19030;49.478;8.986;2022-12-10T09:44:12;23.80;;;14.77;;
32611;SDS011;19030;49.478;8.986;2022-12-10T09:46:37;24.77;;;14.93;;
32611;SDS011;19030;49.478;8.986;2022-12-10T09:51:24;25.55;;;15.40;;
32611;SDS011;19030;49.478;8.986;2022-12-10T09:53:28;26.25;;;15.55;;
32611;SDS011;19030;49.478;8.986;2022-12-10T09:57:41;22.13;;;14.13;;
32611;SDS011;19030;49.478;8.986;2022-12-10T09:59:44;24.50;;;15.52;;
32611;SDS011;19030;49.478;8.986;2022-12-10T10:01:50;24.83;;;15.63;;
32611;SDS011;19030;49.478;8.986;2022-12-10T10:03:59;25.20;;;14.48;;
32611;SDS011;19030;49.478;8.986;2022-12-10T10:05:59;23.77;;;15.50;;
32611;SDS011;19030;49.478;8.986;2022-12-10T10:08:04;22.50;;;13.60;;
32611;SDS011;19030;49.478;8.986;2022-12-10T10:12:44;26.08;;;15.63;;
32611;SDS011;19030;49.478;8.986;2022-12-10T10:14:45;24.23;;;14.68;;
32611;SDS011;19030;49.478;8.986;2022-12-10T10:16:53;25.50;;;14.82;;
32611;SDS011;19030;49.478;8.986;2022-12-10T10:19:03;24.83;;;14.25;;
32611;SDS011;19030;49.478;8.986;2022-12-10T10:21:25;24.00;;;14.88;;
32611;SDS011;19030;49.478;8.986;2022-12-10T10:23:28;23.58;;;13.68;;
32611;SDS011;19030;49.478;8.986;2022-12-10T10:25:29;22.58;;;12.80;;
32611;SDS011;19030;49.478;8.986;2022-12-10T10:27:30;22.45;;;13.15;;
32611;SDS011;19030;49.478;8.986;2022-12-10T10:29:32;26.70;;;14.52;;
32611;SDS011;19030;49.478;8.986;2022-12-10T10:31:34;25.25;;;13.25;;
32611;SDS011;19030;49.478;8.986;2022-12-10T10:33:47;22.00;;;12.98;;
32611;SDS011;19030;49.478;8.986;2022-12-10T10:35:56;22.35;;;12.43;;
32611;SDS011;19030;49.478;8.986;2022-12-10T10:37:59;22.88;;;12.80;;
32611;SDS011;19030;49.478;8.986;2022-12-10T10:40:04;23.02;;;12.77;;
32611;SDS011;19030;49.478;8.986;2022-12-10T10:42:09;26.02;;;13.02;;
32611;SDS011;19030;49.478;8.986;2022-12-10T10:44:13;24.58;;;13.13;;
32611;SDS011;19030;49.478;8.986;2022-12-10T10:46:22;22.45;;;12.95;;
32611;SDS011;19030;49.478;8.986;2022-12-10T10:48:24;23.63;;;14.48;;
32611;SDS011;19030;49.478;8.986;2022-12-10T10:50:26;30.77;;;20.67;;
32611;SDS011;19030;49.478;8.986;2022-12-10T10:52:28;28.63;;;15.68;;
32611;SDS011;19030;49.478;8.986;2022-12-10T10:54:34;23.48;;;13.68;;
32611;SDS011;19030;49.478;8.986;2022-12-10T10:56:42;22.08;;;12.48;;
32611;SDS011;19030;49.478;8.986;2022-12-10T10:58:49;26.02;;;17.33;;
32611;SDS011;19030;49.478;8.986;2022-12-10T11:00:58;22.30;;;12.80;;
32611;SDS011;19030;49.478;8.986;2022-12-10T11:03:00;23.73;;;12.95;;
32611;SDS011;19030;49.478;8.986;2022-12-10T11:05:14;20.58;;;11.80;;
32611;SDS011;19030;49.478;8.986;2022-12-10T11:07:33;20.02;;;11.23;;
32611;SDS011;19030;49.478;8.986;2022-12-10T11:09:39;19.55;;;12.02;;
32611;SDS011;19030;49.478;8.986;2022-12-10T11:11:40;22.35;;;12.40;;
32611;SDS011;19030;49.478;8.986;2022-12-10T11:13:41;22.02;;;12.57;;
32611;SDS011;19030;49.478;8.986;2022-12-10T11:15:41;21.45;;;11.85;;
32611;SDS011;19030;49.478;8.986;2022-12-10T11:17:46;22.38;;;12.07;;
32611;SDS011;19030;49.478;8.986;2022-12-10T11:22:17;20.40;;;11.00;;
32611;SDS011;19030;49.478;8.986;2022-12-10T11:24:21;19.13;;;11.57;;
32611;SDS011;19030;49.478;8.986;2022-12-10T11:30:48;22.00;;;12.10;;
32611;SDS011;19030;49.478;8.986;2022-12-10T11:33:24;20.10;;;10.43;;
32611;SDS011;19030;49.478;8.986;2022-12-10T11:40:14;17.10;;;9.30;;
32611;SDS011;19030;49.478;8.986;2022-12-10T11:45:07;15.93;;;9.68;;
32611;SDS011;19030;49.478;8.986;2022-12-10T11:49:57;17.92;;;10.43;;
32611;SDS011;19030;49.478;8.986;2022-12-10T11:52:29;15.70;;;9.32;;
32611;SDS011;19030;49.478;8.986;2022-12-10T11:59:38;21.40;;;11.82;;
32611;SDS011;19030;49.478;8.986;2022-12-10T12:02:00;20.73;;;12.32;;
32611;SDS011;19030;49.478;8.986;2022-12-10T12:06:51;17.15;;;9.60;;
32611;SDS011;19030;49.478;8.986;2022-12-10T12:13:25;19.38;;;10.38;;
32611;SDS011;19030;49.478;8.986;2022-12-10T12:15:49;16.55;;;9.27;;
32611;SDS011;19030;49.478;8.986;2022-12-10T12:18:23;16.90;;;8.95;;
32611;SDS011;19030;49.478;8.986;2022-12-10T12:20:34;18.40;;;10.40;;
32611;SDS011;19030;49.478;8.986;2022-12-10T12:22:42;19.33;;;9.95;;
32611;SDS011;19030;49.478;8.986;2022-12-10T12:24:48;17.40;;;8.85;;
32611;SDS011;19030;49.478;8.986;2022-12-10T12:26:55;17.80;;;9.32;;
32611;SDS011;19030;49.478;8.986;2022-12-10T12:31:34;16.60;;;8.45;;
32611;SDS011;19030;49.478;8.986;2022-12-10T12:33:41;16.98;;;8.95;;
32611;SDS011;19030;49.478;8.986;2022-12-10T12:35:53;14.82;;;7.25;;
32611;SDS011;19030;49.478;8.986;2022-12-10T12:40:40;15.35;;;8.45;;
32611;SDS011;19030;49.478;8.986;2022-12-10T12:42:52;19.42;;;9.40;;
32611;SDS011;19030;49.478;8.986;2022-12-10T12:45:19;18.10;;;10.02;;
32611;SDS011;19030;49.478;8.986;2022-12-10T12:47:31;17.38;;;8.65;;
32611;SDS011;19030;49.478;8.986;2022-12-10T12:49:37;15.52;;;8.48;;
32611;SDS011;19030;49.478;8.986;2022-12-10T12:51:46;15.55;;;9.00;;
32611;SDS011;19030;49.478;8.986;2022-12-10T12:53:52;17.80;;;9.00;;
32611;SDS011;19030;49.478;8.986;2022-12-10T12:58:34;15.90;;;8.43;;
32611;SDS011;19030;49.478;8.986;2022-12-10T13:00:42;15.97;;;9.23;;
32611;SDS011;19030;49.478;8.986;2022-12-10T13:04:58;15.60;;;8.85;;
32611;SDS011;19030;49.478;8.986;2022-12-10T13:09:32;19.90;;;10.43;;
32611;SDS011;19030;49.478;8.986;2022-12-10T13:11:34;22.15;;;11.95;;